Terminal Aerodrome Forecast
Issued by NWS

Home | Current Version | Previous Version | Text Only | Print | Product List | Glossary On
Versions: 1 2 3 4 5 6 7 8 9 10 11 12
000
FTUS46 KPDT 012320
TAFBDN
TAF
KBDN 012320Z 0200/0224 32009KT P6SM SKC
     FM020600 22003KT P6SM SCT130
     FM021500 VRB05KT P6SM SKC
     FM021800 35005KT P6SM SKC
      AMD NOT SKED=

USA.gov is the U.S. government's official web portal to all federal, state and local government web resources and services.